Time,TemperatureF,DewpointF,PressureIn,WindDirection,WindDirectionDegrees,WindSpeedMPH,WindSpeedGustMPH,Humidity,HourlyPrecipIn,Conditions,Clouds,dailyrainin,SoftwareType,DateUTC
2013-02-18 00:14:00,38.8,34.0,29.97,WNW,298,0.0,-999.0,83,-99.99,,,0.00,weatherlink.com 1.10,2013-02-18 08:14:00,
2013-02-18 00:29:00,38.3,34.0,29.98,WNW,298,0.0,-999.0,84,-99.99,,,0.00,weatherlink.com 1.10,2013-02-18 08:29:00,
2013-02-18 00:44:00,37.8,33.0,29.97,WNW,298,0.0,-999.0,84,-99.99,,,0.00,weatherlink.com 1.10,2013-02-18 08:44:00,
2013-02-18 00:59:00,37.5,33.0,29.98,WNW,298,0.0,-999.0,85,-99.99,,,0.00,weatherlink.com 1.10,2013-02-18 08:59:00,
2013-02-18 01:14:00,37.0,33.0,29.98,WNW,298,0.0,-999.0,86,-99.99,,,0.00,weatherlink.com 1.10,2013-02-18 09:14:00,
2013-02-18 01:29:00,36.6,33.0,29.98,WNW,298,0.0,-999.0,86,-99.99,,,0.00,weatherlink.com 1.10,2013-02-18 09:29:00,
2013-02-18 01:44:00,36.3,33.0,29.98,WNW,298,0.0,-999.0,87,-99.99,,,0.00,weatherlink.com 1.10,2013-02-18 09:44:00,
2013-02-18 01:59:00,35.9,32.0,29.98,WNW,298,0.0,-999.0,87,-99.99,,,0.00,weatherlink.com 1.10,2013-02-18 09:59:00,
2013-02-18 02:14:00,35.6,32.0,29.98,WNW,298,0.0,-999.0,87,-99.99,,,0.00,weatherlink.com 1.10,2013-02-18 10:14:00,
2013-02-18 02:30:00,35.2,32.0,29.98,WNW,298,0.0,-999.0,87,-99.99,,,0.00,weatherlink.com 1.10,2013-02-18 10:30:00,
2013-02-18 02:45:00,35.0,32.0,29.97,WNW,298,0.0,-999.0,88,-99.99,,,0.00,weatherlink.com 1.10,2013-02-18 10:45:00,
2013-02-18 03:00:00,34.9,32.0,29.97,WNW,298,0.0,-999.0,89,-99.99,,,0.00,weatherlink.com 1.10,2013-02-18 11:00:00,
2013-02-18 03:15:00,34.9,32.0,29.96,WNW,298,0.0,-999.0,90,-99.99,,,0.00,weatherlink.com 1.10,2013-02-18 11:15:00,
2013-02-18 03:30:00,35.0,32.0,29.96,WNW,298,0.0,-999.0,90,-99.99,,,0.00,weatherlink.com 1.10,2013-02-18 11:30:00,
2013-02-18 03:45:00,34.7,32.0,29.96,WNW,298,0.0,-999.0,90,-99.99,,,0.00,weatherlink.com 1.10,2013-02-18 11:45:00,
2013-02-18 04:00:00,34.6,32.0,29.95,WNW,298,0.0,-999.0,90,-99.99,,,0.00,weatherlink.com 1.10,2013-02-18 12:00:00,
2013-02-18 04:15:00,34.3,32.0,29.95,WNW,298,0.0,-999.0,90,-99.99,,,0.00,weatherlink.com 1.10,2013-02-18 12:15:00,
2013-02-18 04:30:00,34.0,31.0,29.95,WNW,298,0.0,-999.0,90,-99.99,,,0.00,weatherlink.com 1.10,2013-02-18 12:30:00,
2013-02-18 04:45:00,33.7,31.0,29.95,WNW,298,0.0,-999.0,90,-99.99,,,0.00,weatherlink.com 1.10,2013-02-18 12:45:00,
2013-02-18 05:00:00,33.4,31.0,29.96,WNW,298,0.0,-999.0,90,-99.99,,,0.00,weatherlink.com 1.10,2013-02-18 13:00:00,
2013-02-18 05:15:00,32.9,30.0,29.96,WNW,298,0.0,-999.0,90,-99.99,,,0.00,weatherlink.com 1.10,2013-02-18 13:15:00,
2013-02-18 05:30:00,32.7,30.0,29.97,WNW,298,0.0,-999.0,91,-99.99,,,0.00,weatherlink.com 1.10,2013-02-18 13:30:00,
2013-02-18 05:45:00,33.1,31.0,29.97,WNW,298,0.0,-999.0,91,-99.99,,,0.00,weatherlink.com 1.10,2013-02-18 13:45:00,
2013-02-18 06:00:00,33.7,32.0,29.97,WNW,298,0.0,-999.0,92,-99.99,,,0.00,weatherlink.com 1.10,2013-02-18 14:00:00,
2013-02-18 06:15:00,34.6,33.0,29.97,WNW,298,0.0,-999.0,93,-99.99,,,0.00,weatherlink.com 1.10,2013-02-18 14:15:00,
2013-02-18 06:30:00,35.3,34.0,29.97,WNW,298,0.0,-999.0,93,-99.99,,,0.00,weatherlink.com 1.10,2013-02-18 14:30:00,
2013-02-18 07:00:00,36.9,35.0,29.98,WNW,298,0.0,-999.0,94,-99.99,,,0.00,weatherlink.com 1.10,2013-02-18 15:00:00,
2013-02-18 07:14:00,37.3,36.0,29.98,WNW,298,0.0,-999.0,94,-99.99,,,0.00,weatherlink.com 1.10,2013-02-18 15:14:00,
2013-02-18 07:29:00,37.9,36.0,29.98,WNW,298,0.0,-999.0,94,-99.99,,,0.00,weatherlink.com 1.10,2013-02-18 15:29:00,
2013-02-18 07:44:00,38.3,37.0,29.98,WNW,298,0.0,-999.0,94,-99.99,,,0.00,weatherlink.com 1.10,2013-02-18 15:44:00,
2013-02-18 07:59:00,38.9,37.0,29.98,WNW,298,0.0,-999.0,94,-99.99,,,0.00,weatherlink.com 1.10,2013-02-18 15:59:00,
2013-02-18 08:15:00,39.6,38.0,29.98,WNW,298,0.0,-999.0,95,-99.99,,,0.00,weatherlink.com 1.10,2013-02-18 16:15:00,
2013-02-18 08:30:00,40.5,39.0,29.98,WNW,298,0.0,-999.0,95,-99.99,,,0.00,weatherlink.com 1.10,2013-02-18 16:30:00,
2013-02-18 08:45:00,41.5,40.0,29.98,WNW,298,0.0,-999.0,95,-99.99,,,0.00,weatherlink.com 1.10,2013-02-18 16:45:00,
2013-02-18 09:00:00,42.3,41.0,29.98,WNW,298,0.0,-999.0,95,-99.99,,,0.00,weatherlink.com 1.10,2013-02-18 17:00:00,
2013-02-18 09:16:00,42.9,41.0,29.98,WNW,298,0.0,-999.0,94,-99.99,,,0.00,weatherlink.com 1.10,2013-02-18 17:16:00,
2013-02-18 09:30:00,43.5,42.0,30.00,WNW,298,0.0,-999.0,93,-99.99,,,0.00,weatherlink.com 1.10,2013-02-18 17:30:00,
2013-02-18 09:46:00,44.1,42.0,29.99,WNW,298,0.0,-999.0,93,-99.99,,,0.00,weatherlink.com 1.10,2013-02-18 17:46:00,
2013-02-18 10:01:00,44.5,42.0,29.99,WNW,298,0.0,-999.0,91,-99.99,,,0.00,weatherlink.com 1.10,2013-02-18 18:01:00,
2013-02-18 10:15:00,45.2,42.0,29.98,South,182,0.0,-999.0,88,-99.99,,,0.00,weatherlink.com 1.10,2013-02-18 18:15:00,
2013-02-18 10:30:00,46.4,42.0,29.99,SSE,165,0.0,-999.0,84,-99.99,,,0.00,weatherlink.com 1.10,2013-02-18 18:30:00,
2013-02-18 10:46:00,47.0,42.0,29.99,SSE,163,0.0,-999.0,82,-99.99,,,0.00,weatherlink.com 1.10,2013-02-18 18:46:00,
2013-02-18 11:01:00,47.7,42.0,29.99,SSE,163,0.0,-999.0,79,-99.99,,,0.00,weatherlink.com 1.10,2013-02-18 19:01:00,
2013-02-18 11:15:00,48.3,42.0,29.99,SSE,164,0.0,-999.0,78,-99.99,,,0.00,weatherlink.com 1.10,2013-02-18 19:15:00,
2013-02-18 11:30:00,48.6,42.0,29.99,NW,311,0.0,-999.0,77,-99.99,,,0.00,weatherlink.com 1.10,2013-02-18 19:30:00,
2013-02-18 11:45:00,49.2,42.0,29.98,NW,306,0.0,-999.0,75,-99.99,,,0.00,weatherlink.com 1.10,2013-02-18 19:45:00,
2013-02-18 12:00:00,49.6,42.0,29.97,NNE,19,3.0,-999.0,74,-99.99,,,0.00,weatherlink.com 1.10,2013-02-18 20:00:00,
2013-02-18 12:15:00,49.5,41.0,29.97,NE,49,3.0,-999.0,73,-99.99,,,0.00,weatherlink.com 1.10,2013-02-18 20:15:00,
2013-02-18 12:30:00,49.6,41.0,29.95,NE,39,0.0,-999.0,72,-99.99,,,0.00,weatherlink.com 1.10,2013-02-18 20:30:00,
2013-02-18 12:45:00,50.1,41.0,29.95,NE,39,0.0,-999.0,71,-99.99,,,0.00,weatherlink.com 1.10,2013-02-18 20:45:00,
2013-02-18 13:01:00,52.5,41.0,29.93,ESE,120,3.0,-999.0,65,-99.99,,,0.00,weatherlink.com 1.10,2013-02-18 21:01:00,
2013-02-18 13:16:00,53.3,41.0,29.92,SSE,148,4.0,-999.0,63,-99.99,,,0.00,weatherlink.com 1.10,2013-02-18 21:16:00,
2013-02-18 13:31:00,53.3,40.0,29.92,ESE,114,1.0,-999.0,62,-99.99,,,0.00,weatherlink.com 1.10,2013-02-18 21:31:00,
2013-02-18 13:46:00,53.5,41.0,29.91,SSE,167,3.0,-999.0,62,-99.99,,,0.00,weatherlink.com 1.10,2013-02-18 21:46:00,
2013-02-18 14:01:00,54.1,41.0,29.91,SSW,198,0.0,-999.0,61,-99.99,,,0.00,weatherlink.com 1.10,2013-02-18 22:01:00,
2013-02-18 14:16:00,55.0,42.0,29.91,North,355,1.0,-999.0,62,-99.99,,,0.00,weatherlink.com 1.10,2013-02-18 22:16:00,
2013-02-18 14:31:00,55.4,42.0,29.91,East,100,0.0,-999.0,60,-99.99,,,0.00,weatherlink.com 1.10,2013-02-18 22:31:00,
2013-02-18 14:46:00,55.0,41.0,29.91,WNW,287,5.0,-999.0,59,-99.99,,,0.00,weatherlink.com 1.10,2013-02-18 22:46:00,
2013-02-18 15:01:00,54.5,41.0,29.90,NW,321,2.0,-999.0,61,-99.99,,,0.00,weatherlink.com 1.10,2013-02-18 23:01:00,
2013-02-18 15:16:00,54.5,41.0,29.89,NW,313,4.0,-999.0,60,-99.99,,,0.00,weatherlink.com 1.10,2013-02-18 23:16:00,
2013-02-18 15:31:00,53.3,40.0,29.90,WNW,300,0.0,-999.0,62,-99.99,,,0.00,weatherlink.com 1.10,2013-02-18 23:31:00,
2013-02-18 15:46:00,52.8,40.0,29.89,WNW,288,4.0,-999.0,62,-99.99,,,0.00,weatherlink.com 1.10,2013-02-18 23:46:00,
2013-02-18 16:01:00,52.5,41.0,29.89,WNW,286,3.0,-999.0,64,-99.99,,,0.00,weatherlink.com 1.10,2013-02-19 00:01:00,
2013-02-18 16:16:00,52.8,40.0,29.89,WSW,252,0.0,-999.0,63,-99.99,,,0.00,weatherlink.com 1.10,2013-02-19 00:16:00,
2013-02-18 16:31:00,52.8,41.0,29.89,West,262,6.0,-999.0,64,-99.99,,,0.00,weatherlink.com 1.10,2013-02-19 00:31:00,
2013-02-18 16:46:00,51.7,40.0,29.89,West,266,6.0,-999.0,65,-99.99,,,0.00,weatherlink.com 1.10,2013-02-19 00:46:00,
2013-02-18 17:01:00,51.1,40.0,29.88,West,269,7.0,-999.0,66,-99.99,,,0.00,weatherlink.com 1.10,2013-02-19 01:01:00,
2013-02-18 17:16:00,50.5,40.0,29.89,WNW,289,3.0,-999.0,68,-99.99,,,0.00,weatherlink.com 1.10,2013-02-19 01:16:00,
2013-02-18 17:31:00,50.2,40.0,29.88,West,279,1.0,-999.0,68,-99.99,,,0.00,weatherlink.com 1.10,2013-02-19 01:31:00,
2013-02-18 17:46:00,49.9,40.0,29.89,WNW,283,0.0,-999.0,68,-99.99,,,0.00,weatherlink.com 1.10,2013-02-19 01:46:00,
2013-02-18 18:01:00,49.8,40.0,29.89,WNW,283,2.0,-999.0,69,-99.99,,,0.00,weatherlink.com 1.10,2013-02-19 02:01:00,
2013-02-18 18:31:00,49.5,40.0,29.89,SSW,195,0.0,-999.0,70,-99.99,,,0.00,weatherlink.com 1.10,2013-02-19 02:31:00,
2013-02-18 18:46:00,49.4,41.0,29.89,WNW,296,5.0,-999.0,72,-99.99,,,0.00,weatherlink.com 1.10,2013-02-19 02:46:00,
2013-02-18 19:01:00,48.9,41.0,29.89,West,279,2.0,-999.0,73,-99.99,,,0.00,weatherlink.com 1.10,2013-02-19 03:01:00,
2013-02-18 19:16:00,48.8,40.0,29.89,WNW,296,5.0,-999.0,73,-99.99,,,0.00,weatherlink.com 1.10,2013-02-19 03:16:00,
2013-02-18 19:31:00,48.6,41.0,29.89,NW,304,2.0,-999.0,74,-99.99,,,0.00,weatherlink.com 1.10,2013-02-19 03:31:00,
2013-02-18 19:46:00,48.5,41.0,29.89,NNW,333,0.0,-999.0,74,-99.99,,,0.00,weatherlink.com 1.10,2013-02-19 03:46:00,
2013-02-18 20:01:00,48.5,40.0,29.90,NNW,333,0.0,-999.0,73,-99.99,,,0.00,weatherlink.com 1.10,2013-02-19 04:01:00,
2013-02-18 20:16:00,48.2,39.0,29.90,NW,307,0.0,-999.0,71,-99.99,,,0.00,weatherlink.com 1.10,2013-02-19 04:16:00,
2013-02-18 20:31:00,47.7,38.0,29.90,WNW,298,2.0,-999.0,70,-99.99,,,0.00,weatherlink.com 1.10,2013-02-19 04:31:00,
2013-02-18 20:46:00,47.4,38.0,29.91,WNW,300,1.0,-999.0,69,-99.99,,,0.00,weatherlink.com 1.10,2013-02-19 04:46:00,
2013-02-18 21:01:00,47.0,38.0,29.91,NNW,334,3.0,-999.0,70,-99.99,,,0.00,weatherlink.com 1.10,2013-02-19 05:01:00,
2013-02-18 21:16:00,47.0,37.0,29.91,NW,319,3.0,-999.0,69,-99.99,,,0.00,weatherlink.com 1.10,2013-02-19 05:16:00,
2013-02-18 21:31:00,46.7,37.0,29.92,NNW,337,2.0,-999.0,69,-99.99,,,0.00,weatherlink.com 1.10,2013-02-19 05:31:00,
2013-02-18 21:46:00,46.7,37.0,29.92,NW,312,0.0,-999.0,70,-99.99,,,0.00,weatherlink.com 1.10,2013-02-19 05:46:00,
2013-02-18 22:01:00,46.5,37.0,29.92,NW,311,2.0,-999.0,70,-99.99,,,0.00,weatherlink.com 1.10,2013-02-19 06:01:00,
2013-02-18 22:16:00,46.4,37.0,29.92,NNW,332,1.0,-999.0,70,-99.99,,,0.00,weatherlink.com 1.10,2013-02-19 06:16:00,
2013-02-18 22:31:00,46.2,37.0,29.92,WNW,292,2.0,-999.0,71,-99.99,,,0.00,weatherlink.com 1.10,2013-02-19 06:31:00,
2013-02-18 22:46:00,46.0,37.0,29.92,WNW,292,2.0,-999.0,71,-99.99,,,0.00,weatherlink.com 1.10,2013-02-19 06:46:00,
2013-02-18 23:01:00,45.4,37.0,29.92,WNW,288,3.0,-999.0,72,-99.99,,,0.00,weatherlink.com 1.10,2013-02-19 07:01:00,
2013-02-18 23:16:00,44.8,36.0,29.92,WNW,288,2.0,-999.0,72,-99.99,,,0.00,weatherlink.com 1.10,2013-02-19 07:16:00,
2013-02-18 23:31:00,44.1,36.0,29.92,WNW,288,1.0,-999.0,73,-99.99,,,0.00,weatherlink.com 1.10,2013-02-19 07:31:00,
2013-02-18 23:46:00,43.3,36.0,29.91,WNW,288,0.0,-999.0,74,-99.99,,,0.00,weatherlink.com 1.10,2013-02-19 07:46:00,